sensor_id;sensor_type;location;lat;lon;timestamp;P1;durP1;ratioP1;P2;durP2;ratioP2
60494;SDS011;46342;49.046;11.920;2024-03-29T00:01:48;1.58;;;1.10;;
60494;SDS011;46342;49.046;11.920;2024-03-29T00:04:14;1.20;;;1.10;;
60494;SDS011;46342;49.046;11.920;2024-03-29T00:06:39;1.02;;;0.95;;
60494;SDS011;46342;49.046;11.920;2024-03-29T00:09:05;1.85;;;1.10;;
60494;SDS011;46342;49.046;11.920;2024-03-29T00:11:31;2.15;;;1.30;;
60494;SDS011;46342;49.046;11.920;2024-03-29T00:13:56;1.10;;;1.00;;
60494;SDS011;46342;49.046;11.920;2024-03-29T00:16:22;1.88;;;1.00;;
60494;SDS011;46342;49.046;11.920;2024-03-29T00:21:16;1.52;;;1.10;;
60494;SDS011;46342;49.046;11.920;2024-03-29T00:23:42;1.83;;;1.10;;
60494;SDS011;46342;49.046;11.920;2024-03-29T00:26:09;3.20;;;1.38;;
60494;SDS011;46342;49.046;11.920;2024-03-29T00:28:34;1.30;;;1.20;;
60494;SDS011;46342;49.046;11.920;2024-03-29T00:31:00;1.20;;;1.10;;
60494;SDS011;46342;49.046;11.920;2024-03-29T00:33:25;2.00;;;1.45;;
60494;SDS011;46342;49.046;11.920;2024-03-29T00:35:51;2.47;;;1.30;;
60494;SDS011;46342;49.046;11.920;2024-03-29T00:38:16;1.30;;;1.17;;
60494;SDS011;46342;49.046;11.920;2024-03-29T00:40:42;1.52;;;1.23;;
60494;SDS011;46342;49.046;11.920;2024-03-29T00:43:07;1.33;;;1.23;;
60494;SDS011;46342;49.046;11.920;2024-03-29T00:45:33;2.20;;;1.27;;
60494;SDS011;46342;49.046;11.920;2024-03-29T00:47:59;1.50;;;1.20;;
60494;SDS011;46342;49.046;11.920;2024-03-29T00:50:24;1.20;;;1.10;;
60494;SDS011;46342;49.046;11.920;2024-03-29T00:52:50;1.40;;;1.30;;
60494;SDS011;46342;49.046;11.920;2024-03-29T00:55:15;1.55;;;1.33;;
60494;SDS011;46342;49.046;11.920;2024-03-29T00:57:41;1.98;;;1.30;;
60494;SDS011;46342;49.046;11.920;2024-03-29T01:00:07;1.42;;;1.30;;
60494;SDS011;46342;49.046;11.920;2024-03-29T01:02:35;1.50;;;1.40;;
60494;SDS011;46342;49.046;11.920;2024-03-29T01:05:01;1.60;;;1.50;;
60494;SDS011;46342;49.046;11.920;2024-03-29T01:07:26;1.83;;;1.30;;
60494;SDS011;46342;49.046;11.920;2024-03-29T01:09:52;1.48;;;1.38;;
60494;SDS011;46342;49.046;11.920;2024-03-29T01:12:18;2.38;;;1.60;;
60494;SDS011;46342;49.046;11.920;2024-03-29T01:14:44;2.40;;;1.50;;
60494;SDS011;46342;49.046;11.920;2024-03-29T01:17:10;2.10;;;1.45;;
60494;SDS011;46342;49.046;11.920;2024-03-29T01:19:36;1.42;;;1.20;;
60494;SDS011;46342;49.046;11.920;2024-03-29T01:22:02;3.17;;;1.75;;
60494;SDS011;46342;49.046;11.920;2024-03-29T01:24:29;2.03;;;1.40;;
60494;SDS011;46342;49.046;11.920;2024-03-29T01:26:54;3.38;;;1.35;;
60494;SDS011;46342;49.046;11.920;2024-03-29T01:29:20;1.52;;;1.33;;
60494;SDS011;46342;49.046;11.920;2024-03-29T01:31:45;1.70;;;1.48;;
60494;SDS011;46342;49.046;11.920;2024-03-29T01:34:11;1.48;;;1.33;;
60494;SDS011;46342;49.046;11.920;2024-03-29T01:36:37;1.77;;;1.58;;
60494;SDS011;46342;49.046;11.920;2024-03-29T01:39:03;1.48;;;1.08;;
60494;SDS011;46342;49.046;11.920;2024-03-29T01:41:29;2.85;;;1.40;;
60494;SDS011;46342;49.046;11.920;2024-03-29T01:43:55;1.75;;;1.55;;
60494;SDS011;46342;49.046;11.920;2024-03-29T01:46:21;1.77;;;1.60;;
60494;SDS011;46342;49.046;11.920;2024-03-29T01:48:49;2.72;;;1.58;;
60494;SDS011;46342;49.046;11.920;2024-03-29T01:51:18;1.60;;;1.50;;
60494;SDS011;46342;49.046;11.920;2024-03-29T01:53:46;1.60;;;1.40;;
60494;SDS011;46342;49.046;11.920;2024-03-29T01:56:14;1.27;;;1.17;;
60494;SDS011;46342;49.046;11.920;2024-03-29T01:58:41;2.13;;;1.30;;
60494;SDS011;46342;49.046;11.920;2024-03-29T02:01:07;2.35;;;1.90;;
60494;SDS011;46342;49.046;11.920;2024-03-29T02:03:33;1.70;;;1.50;;
60494;SDS011;46342;49.046;11.920;2024-03-29T02:05:58;1.92;;;1.65;;
60494;SDS011;46342;49.046;11.920;2024-03-29T02:08:26;2.15;;;1.60;;
60494;SDS011;46342;49.046;11.920;2024-03-29T02:10:53;2.10;;;1.38;;
60494;SDS011;46342;49.046;11.920;2024-03-29T02:13:18;1.67;;;1.48;;
60494;SDS011;46342;49.046;11.920;2024-03-29T02:15:44;7.03;;;1.38;;
60494;SDS011;46342;49.046;11.920;2024-03-29T02:18:09;2.17;;;1.50;;
60494;SDS011;46342;49.046;11.920;2024-03-29T02:20:35;3.13;;;1.67;;
60494;SDS011;46342;49.046;11.920;2024-03-29T02:23:05;2.47;;;1.60;;
60494;SDS011;46342;49.046;11.920;2024-03-29T02:25:33;1.65;;;1.40;;
60494;SDS011;46342;49.046;11.920;2024-03-29T02:28:00;2.05;;;1.60;;
60494;SDS011;46342;49.046;11.920;2024-03-29T02:30:28;2.67;;;1.52;;
60494;SDS011;46342;49.046;11.920;2024-03-29T02:32:55;3.17;;;1.75;;
60494;SDS011;46342;49.046;11.920;2024-03-29T02:35:21;1.63;;;1.50;;
60494;SDS011;46342;49.046;11.920;2024-03-29T02:37:47;1.92;;;1.50;;
60494;SDS011;46342;49.046;11.920;2024-03-29T02:40:12;1.70;;;1.50;;
60494;SDS011;46342;49.046;11.920;2024-03-29T02:42:38;1.58;;;1.48;;
60494;SDS011;46342;49.046;11.920;2024-03-29T02:45:03;1.90;;;1.33;;
60494;SDS011;46342;49.046;11.920;2024-03-29T02:47:29;1.60;;;1.50;;
60494;SDS011;46342;49.046;11.920;2024-03-29T02:53:23;1.30;;;1.20;;
60494;SDS011;46342;49.046;11.920;2024-03-29T02:55:48;2.17;;;1.30;;
60494;SDS011;46342;49.046;11.920;2024-03-29T02:58:14;1.67;;;1.30;;
60494;SDS011;46342;49.046;11.920;2024-03-29T03:00:40;1.70;;;1.27;;
60494;SDS011;46342;49.046;11.920;2024-03-29T03:03:05;1.20;;;1.10;;
60494;SDS011;46342;49.046;11.920;2024-03-29T03:05:31;1.48;;;1.20;;
60494;SDS011;46342;49.046;11.920;2024-03-29T03:07:57;1.20;;;1.10;;
60494;SDS011;46342;49.046;11.920;2024-03-29T03:10:47;1.30;;;1.20;;
60494;SDS011;46342;49.046;11.920;2024-03-29T03:13:24;1.38;;;1.05;;
60494;SDS011;46342;49.046;11.920;2024-03-29T03:15:51;1.45;;;1.00;;
60494;SDS011;46342;49.046;11.920;2024-03-29T03:18:16;1.30;;;1.20;;
60494;SDS011;46342;49.046;11.920;2024-03-29T03:20:42;1.98;;;1.50;;
60494;SDS011;46342;49.046;11.920;2024-03-29T03:23:07;1.77;;;1.30;;
60494;SDS011;46342;49.046;11.920;2024-03-29T03:25:33;2.78;;;1.38;;
60494;SDS011;46342;49.046;11.920;2024-03-29T03:27:58;2.00;;;1.00;;
60494;SDS011;46342;49.046;11.920;2024-03-29T03:30:24;1.27;;;1.13;;
60494;SDS011;46342;49.046;11.920;2024-03-29T03:32:49;1.55;;;1.20;;
60494;SDS011;46342;49.046;11.920;2024-03-29T03:35:15;1.50;;;1.13;;
60494;SDS011;46342;49.046;11.920;2024-03-29T03:37:40;2.17;;;1.52;;
60494;SDS011;46342;49.046;11.920;2024-03-29T03:40:06;2.00;;;1.50;;
60494;SDS011;46342;49.046;11.920;2024-03-29T03:42:32;1.20;;;1.10;;
60494;SDS011;46342;49.046;11.920;2024-03-29T03:44:58;1.00;;;0.90;;
60494;SDS011;46342;49.046;11.920;2024-03-29T03:47:23;1.30;;;1.20;;
60494;SDS011;46342;49.046;11.920;2024-03-29T03:49:49;1.00;;;1.00;;
60494;SDS011;46342;49.046;11.920;2024-03-29T03:52:14;1.17;;;1.00;;
60494;SDS011;46342;49.046;11.920;2024-03-29T03:54:40;1.95;;;1.10;;
60494;SDS011;46342;49.046;11.920;2024-03-29T03:57:06;0.95;;;0.95;;
60494;SDS011;46342;49.046;11.920;2024-03-29T03:59:31;1.30;;;1.15;;
60494;SDS011;46342;49.046;11.920;2024-03-29T04:01:57;1.63;;;1.17;;
60494;SDS011;46342;49.046;11.920;2024-03-29T04:04:23;10.63;;;6.00;;
60494;SDS011;46342;49.046;11.920;2024-03-29T04:06:48;4.43;;;2.63;;
60494;SDS011;46342;49.046;11.920;2024-03-29T04:09:14;3.70;;;1.80;;
60494;SDS011;46342;49.046;11.920;2024-03-29T04:11:41;2.13;;;1.92;;
60494;SDS011;46342;49.046;11.920;2024-03-29T04:14:07;2.00;;;1.80;;
60494;SDS011;46342;49.046;11.920;2024-03-29T04:16:32;2.42;;;1.95;;
60494;SDS011;46342;49.046;11.920;2024-03-29T04:18:58;1.30;;;1.20;;
60494;SDS011;46342;49.046;11.920;2024-03-29T04:21:23;1.45;;;1.35;;
60494;SDS011;46342;49.046;11.920;2024-03-29T04:23:49;2.03;;;1.60;;
60494;SDS011;46342;49.046;11.920;2024-03-29T04:26:14;1.50;;;1.40;;
60494;SDS011;46342;49.046;11.920;2024-03-29T04:28:40;1.60;;;1.50;;
60494;SDS011;46342;49.046;11.920;2024-03-29T04:31:05;1.50;;;1.40;;
60494;SDS011;46342;49.046;11.920;2024-03-29T04:33:31;1.65;;;1.55;;
60494;SDS011;46342;49.046;11.920;2024-03-29T04:35:57;1.30;;;1.20;;
60494;SDS011;46342;49.046;11.920;2024-03-29T04:38:27;1.60;;;1.40;;
60494;SDS011;46342;49.046;11.920;2024-03-29T04:40:54;1.65;;;1.30;;
60494;SDS011;46342;49.046;11.920;2024-03-29T04:43:24;1.92;;;1.55;;
60494;SDS011;46342;49.046;11.920;2024-03-29T04:45:51;1.80;;;1.27;;
60494;SDS011;46342;49.046;11.920;2024-03-29T04:48:34;1.52;;;1.40;;
60494;SDS011;46342;49.046;11.920;2024-03-29T04:51:00;1.70;;;1.48;;
60494;SDS011;46342;49.046;11.920;2024-03-29T04:53:26;1.38;;;1.27;;
60494;SDS011;46342;49.046;11.920;2024-03-29T04:55:55;1.30;;;1.20;;
60494;SDS011;46342;49.046;11.920;2024-03-29T04:58:22;2.67;;;1.17;;
60494;SDS011;46342;49.046;11.920;2024-03-29T05:00:48;1.38;;;1.10;;
60494;SDS011;46342;49.046;11.920;2024-03-29T05:03:14;1.20;;;1.10;;
60494;SDS011;46342;49.046;11.920;2024-03-29T05:05:41;1.58;;;1.40;;
60494;SDS011;46342;49.046;11.920;2024-03-29T05:08:07;2.10;;;1.40;;
60494;SDS011;46342;49.046;11.920;2024-03-29T05:10:32;1.33;;;1.20;;
60494;SDS011;46342;49.046;11.920;2024-03-29T05:12:59;1.30;;;1.20;;
60494;SDS011;46342;49.046;11.920;2024-03-29T05:15:26;1.45;;;1.27;;
60494;SDS011;46342;49.046;11.920;2024-03-29T05:17:51;1.40;;;1.20;;
60494;SDS011;46342;49.046;11.920;2024-03-29T05:20:18;1.25;;;1.15;;
60494;SDS011;46342;49.046;11.920;2024-03-29T05:22:44;1.35;;;1.25;;
60494;SDS011;46342;49.046;11.920;2024-03-29T05:25:09;1.15;;;1.13;;
60494;SDS011;46342;49.046;11.920;2024-03-29T05:27:35;1.10;;;1.00;;
60494;SDS011;46342;49.046;11.920;2024-03-29T05:30:01;1.95;;;1.23;;
60494;SDS011;46342;49.046;11.920;2024-03-29T05:32:28;1.73;;;1.33;;
60494;SDS011;46342;49.046;11.920;2024-03-29T05:34:54;1.40;;;1.30;;
60494;SDS011;46342;49.046;11.920;2024-03-29T05:37:19;1.48;;;1.10;;
60494;SDS011;46342;49.046;11.920;2024-03-29T05:39:45;1.73;;;1.63;;
60494;SDS011;46342;49.046;11.920;2024-03-29T05:42:12;1.70;;;1.42;;
60494;SDS011;46342;49.046;11.920;2024-03-29T05:44:37;1.25;;;1.15;;
60494;SDS011;46342;49.046;11.920;2024-03-29T05:47:03;1.10;;;1.00;;
60494;SDS011;46342;49.046;11.920;2024-03-29T05:49:32;1.20;;;1.10;;
60494;SDS011;46342;49.046;11.920;2024-03-29T05:51:58;1.30;;;1.20;;
60494;SDS011;46342;49.046;11.920;2024-03-29T05:54:23;1.20;;;1.10;;
60494;SDS011;46342;49.046;11.920;2024-03-29T05:56:49;1.23;;;1.13;;
60494;SDS011;46342;49.046;11.920;2024-03-29T05:59:15;1.80;;;1.30;;
60494;SDS011;46342;49.046;11.920;2024-03-29T06:01:40;2.00;;;1.30;;
60494;SDS011;46342;49.046;11.920;2024-03-29T06:04:07;2.15;;;1.50;;
60494;SDS011;46342;49.046;11.920;2024-03-29T06:06:40;1.98;;;1.00;;
60494;SDS011;46342;49.046;11.920;2024-03-29T06:09:06;2.08;;;1.25;;
60494;SDS011;46342;49.046;11.920;2024-03-29T06:11:31;1.58;;;1.33;;
60494;SDS011;46342;49.046;11.920;2024-03-29T06:13:57;1.70;;;1.27;;
60494;SDS011;46342;49.046;11.920;2024-03-29T06:16:24;1.40;;;1.17;;
60494;SDS011;46342;49.046;11.920;2024-03-29T06:19:09;1.73;;;1.55;;
60494;SDS011;46342;49.046;11.920;2024-03-29T06:21:34;1.50;;;1.40;;
60494;SDS011;46342;49.046;11.920;2024-03-29T06:24:04;1.70;;;1.35;;
60494;SDS011;46342;49.046;11.920;2024-03-29T06:26:31;1.40;;;1.30;;
60494;SDS011;46342;49.046;11.920;2024-03-29T06:28:56;1.75;;;1.40;;
60494;SDS011;46342;49.046;11.920;2024-03-29T06:31:22;1.30;;;1.20;;
60494;SDS011;46342;49.046;11.920;2024-03-29T06:33:47;2.10;;;1.42;;
60494;SDS011;46342;49.046;11.920;2024-03-29T06:36:13;1.33;;;1.23;;
60494;SDS011;46342;49.046;11.920;2024-03-29T06:38:39;1.48;;;1.20;;
60494;SDS011;46342;49.046;11.920;2024-03-29T06:41:04;1.42;;;1.33;;
60494;SDS011;46342;49.046;11.920;2024-03-29T06:43:30;1.30;;;1.17;;
60494;SDS011;46342;49.046;11.920;2024-03-29T06:45:55;2.08;;;1.60;;
60494;SDS011;46342;49.046;11.920;2024-03-29T06:48:22;1.40;;;1.30;;
60494;SDS011;46342;49.046;11.920;2024-03-29T06:50:48;2.00;;;1.50;;
60494;SDS011;46342;49.046;11.920;2024-03-29T06:53:14;1.83;;;1.30;;
60494;SDS011;46342;49.046;11.920;2024-03-29T06:55:40;2.70;;;1.67;;
60494;SDS011;46342;49.046;11.920;2024-03-29T06:58:06;1.67;;;1.50;;
60494;SDS011;46342;49.046;11.920;2024-03-29T07:00:32;2.47;;;1.65;;
60494;SDS011;46342;49.046;11.920;2024-03-29T07:02:58;2.42;;;1.40;;
60494;SDS011;46342;49.046;11.920;2024-03-29T07:05:23;2.05;;;1.48;;
60494;SDS011;46342;49.046;11.920;2024-03-29T07:07:49;2.20;;;1.70;;
60494;SDS011;46342;49.046;11.920;2024-03-29T07:10:14;2.53;;;1.70;;
60494;SDS011;46342;49.046;11.920;2024-03-29T07:12:40;1.67;;;1.58;;
60494;SDS011;46342;49.046;11.920;2024-03-29T07:15:06;1.63;;;1.52;;
60494;SDS011;46342;49.046;11.920;2024-03-29T07:17:31;1.50;;;1.40;;
60494;SDS011;46342;49.046;11.920;2024-03-29T07:19:57;1.88;;;1.40;;
60494;SDS011;46342;49.046;11.920;2024-03-29T07:22:22;2.08;;;1.48;;
60494;SDS011;46342;49.046;11.920;2024-03-29T07:24:48;1.55;;;1.45;;
60494;SDS011;46342;49.046;11.920;2024-03-29T07:27:13;2.17;;;1.60;;
60494;SDS011;46342;49.046;11.920;2024-03-29T07:32:09;4.10;;;2.10;;
60494;SDS011;46342;49.046;11.920;2024-03-29T07:34:34;3.38;;;1.70;;
60494;SDS011;46342;49.046;11.920;2024-03-29T07:37:00;4.03;;;1.50;;
60494;SDS011;46342;49.046;11.920;2024-03-29T07:39:26;2.42;;;1.80;;
60494;SDS011;46342;49.046;11.920;2024-03-29T07:41:51;2.70;;;1.60;;
60494;SDS011;46342;49.046;11.920;2024-03-29T07:44:17;2.70;;;1.80;;
60494;SDS011;46342;49.046;11.920;2024-03-29T07:46:42;2.22;;;1.65;;
60494;SDS011;46342;49.046;11.920;2024-03-29T07:49:11;2.60;;;1.80;;
60494;SDS011;46342;49.046;11.920;2024-03-29T07:51:36;2.13;;;1.73;;
60494;SDS011;46342;49.046;11.920;2024-03-29T07:54:02;2.17;;;1.65;;
60494;SDS011;46342;49.046;11.920;2024-03-29T07:56:27;2.20;;;1.80;;
60494;SDS011;46342;49.046;11.920;2024-03-29T07:58:53;2.30;;;2.08;;
60494;SDS011;46342;49.046;11.920;2024-03-29T08:01:22;2.58;;;1.85;;
60494;SDS011;46342;49.046;11.920;2024-03-29T08:03:51;2.55;;;2.10;;
60494;SDS011;46342;49.046;11.920;2024-03-29T08:06:18;2.92;;;2.38;;
60494;SDS011;46342;49.046;11.920;2024-03-29T08:08:44;2.13;;;1.75;;
60494;SDS011;46342;49.046;11.920;2024-03-29T08:11:10;3.50;;;1.88;;
60494;SDS011;46342;49.046;11.920;2024-03-29T08:13:37;1.88;;;1.50;;
60494;SDS011;46342;49.046;11.920;2024-03-29T08:16:04;2.35;;;1.90;;
60494;SDS011;46342;49.046;11.920;2024-03-29T08:18:30;3.00;;;1.85;;
60494;SDS011;46342;49.046;11.920;2024-03-29T08:20:56;13.35;;;2.10;;
60494;SDS011;46342;49.046;11.920;2024-03-29T08:23:22;3.40;;;1.73;;
60494;SDS011;46342;49.046;11.920;2024-03-29T08:25:48;1.90;;;1.65;;
60494;SDS011;46342;49.046;11.920;2024-03-29T08:28:14;2.60;;;1.85;;
60494;SDS011;46342;49.046;11.920;2024-03-29T08:30:40;2.42;;;1.45;;
60494;SDS011;46342;49.046;11.920;2024-03-29T08:33:06;1.58;;;1.48;;
60494;SDS011;46342;49.046;11.920;2024-03-29T08:35:32;2.78;;;1.60;;
60494;SDS011;46342;49.046;11.920;2024-03-29T08:37:58;3.13;;;1.88;;
60494;SDS011;46342;49.046;11.920;2024-03-29T08:40:26;2.28;;;1.42;;
60494;SDS011;46342;49.046;11.920;2024-03-29T08:42:54;2.33;;;1.50;;
60494;SDS011;46342;49.046;11.920;2024-03-29T08:45:20;2.22;;;1.85;;
60494;SDS011;46342;49.046;11.920;2024-03-29T08:47:46;2.65;;;1.75;;
60494;SDS011;46342;49.046;11.920;2024-03-29T08:50:11;1.95;;;1.73;;
60494;SDS011;46342;49.046;11.920;2024-03-29T08:52:38;2.88;;;1.70;;
60494;SDS011;46342;49.046;11.920;2024-03-29T08:55:05;2.75;;;1.70;;
60494;SDS011;46342;49.046;11.920;2024-03-29T08:57:34;3.22;;;1.67;;
60494;SDS011;46342;49.046;11.920;2024-03-29T09:00:00;3.30;;;1.63;;
60494;SDS011;46342;49.046;11.920;2024-03-29T09:02:25;2.53;;;1.70;;
60494;SDS011;46342;49.046;11.920;2024-03-29T09:04:51;1.77;;;1.63;;
60494;SDS011;46342;49.046;11.920;2024-03-29T09:07:17;1.73;;;1.60;;
60494;SDS011;46342;49.046;11.920;2024-03-29T09:09:42;1.92;;;1.60;;
60494;SDS011;46342;49.046;11.920;2024-03-29T09:12:08;1.77;;;1.48;;
60494;SDS011;46342;49.046;11.920;2024-03-29T09:14:34;3.03;;;1.80;;
60494;SDS011;46342;49.046;11.920;2024-03-29T09:16:59;1.95;;;1.70;;
60494;SDS011;46342;49.046;11.920;2024-03-29T09:19:26;2.67;;;1.58;;
60494;SDS011;46342;49.046;11.920;2024-03-29T09:21:52;2.25;;;1.80;;
60494;SDS011;46342;49.046;11.920;2024-03-29T09:24:18;2.35;;;1.90;;
60494;SDS011;46342;49.046;11.920;2024-03-29T09:26:44;1.85;;;1.58;;
60494;SDS011;46342;49.046;11.920;2024-03-29T09:29:10;6.07;;;1.85;;
60494;SDS011;46342;49.046;11.920;2024-03-29T09:31:38;2.30;;;1.65;;
60494;SDS011;46342;49.046;11.920;2024-03-29T09:34:03;1.88;;;1.50;;
60494;SDS011;46342;49.046;11.920;2024-03-29T09:36:29;2.17;;;1.60;;
60494;SDS011;46342;49.046;11.920;2024-03-29T09:38:54;2.05;;;1.40;;
60494;SDS011;46342;49.046;11.920;2024-03-29T09:41:20;1.85;;;1.42;;
60494;SDS011;46342;49.046;11.920;2024-03-29T09:46:14;2.22;;;1.27;;
60494;SDS011;46342;49.046;11.920;2024-03-29T09:48:41;5.80;;;2.85;;
60494;SDS011;46342;49.046;11.920;2024-03-29T09:51:08;4.07;;;2.35;;
60494;SDS011;46342;49.046;11.920;2024-03-29T09:53:35;2.75;;;2.30;;
60494;SDS011;46342;49.046;11.920;2024-03-29T09:56:05;3.55;;;1.73;;
60494;SDS011;46342;49.046;11.920;2024-03-29T09:58:31;2.50;;;1.63;;
60494;SDS011;46342;49.046;11.920;2024-03-29T10:01:02;2.80;;;1.63;;
60494;SDS011;46342;49.046;11.920;2024-03-29T10:03:29;2.40;;;1.83;;
60494;SDS011;46342;49.046;11.920;2024-03-29T10:05:58;3.08;;;1.50;;
60494;SDS011;46342;49.046;11.920;2024-03-29T10:08:28;2.03;;;1.80;;
60494;SDS011;46342;49.046;11.920;2024-03-29T10:10:55;2.13;;;1.45;;
60494;SDS011;46342;49.046;11.920;2024-03-29T10:13:22;3.80;;;1.70;;
60494;SDS011;46342;49.046;11.920;2024-03-29T10:15:54;3.15;;;1.70;;
60494;SDS011;46342;49.046;11.920;2024-03-29T10:18:24;2.90;;;1.60;;
60494;SDS011;46342;49.046;11.920;2024-03-29T10:21:01;2.70;;;1.70;;
60494;SDS011;46342;49.046;11.920;2024-03-29T10:23:28;1.80;;;1.50;;
60494;SDS011;46342;49.046;11.920;2024-03-29T10:25:55;2.30;;;1.70;;
60494;SDS011;46342;49.046;11.920;2024-03-29T10:28:20;2.42;;;1.60;;
60494;SDS011;46342;49.046;11.920;2024-03-29T10:30:47;2.60;;;1.50;;
60494;SDS011;46342;49.046;11.920;2024-03-29T10:33:13;1.95;;;1.70;;
60494;SDS011;46342;49.046;11.920;2024-03-29T10:35:45;2.75;;;1.60;;
60494;SDS011;46342;49.046;11.920;2024-03-29T10:38:11;2.90;;;2.00;;
60494;SDS011;46342;49.046;11.920;2024-03-29T10:40:38;3.10;;;1.40;;
60494;SDS011;46342;49.046;11.920;2024-03-29T10:43:06;2.15;;;1.42;;
60494;SDS011;46342;49.046;11.920;2024-03-29T10:45:37;1.30;;;1.20;;
60494;SDS011;46342;49.046;11.920;2024-03-29T10:48:04;2.45;;;1.33;;
60494;SDS011;46342;49.046;11.920;2024-03-29T10:50:34;1.42;;;1.30;;
60494;SDS011;46342;49.046;11.920;2024-03-29T10:53:05;1.40;;;1.30;;
60494;SDS011;46342;49.046;11.920;2024-03-29T10:55:35;1.58;;;1.40;;
60494;SDS011;46342;49.046;11.920;2024-03-29T10:58:02;1.30;;;1.05;;
60494;SDS011;46342;49.046;11.920;2024-03-29T11:00:31;1.50;;;1.33;;
60494;SDS011;46342;49.046;11.920;2024-03-29T11:05:46;1.05;;;0.90;;
60494;SDS011;46342;49.046;11.920;2024-03-29T11:08:14;1.45;;;0.98;;
60494;SDS011;46342;49.046;11.920;2024-03-29T11:10:45;1.00;;;0.95;;
60494;SDS011;46342;49.046;11.920;2024-03-29T11:15:54;3.45;;;1.10;;
60494;SDS011;46342;49.046;11.920;2024-03-29T11:18:20;2.53;;;1.20;;
60494;SDS011;46342;49.046;11.920;2024-03-29T11:20:46;1.58;;;1.10;;
60494;SDS011;46342;49.046;11.920;2024-03-29T11:23:19;1.45;;;1.30;;
60494;SDS011;46342;49.046;11.920;2024-03-29T11:25:50;1.77;;;1.48;;
60494;SDS011;46342;49.046;11.920;2024-03-29T11:28:29;2.58;;;1.10;;
60494;SDS011;46342;49.046;11.920;2024-03-29T11:31:06;2.10;;;1.00;;
60494;SDS011;46342;49.046;11.920;2024-03-29T11:33:33;1.35;;;1.20;;
60494;SDS011;46342;49.046;11.920;2024-03-29T11:36:01;0.90;;;0.90;;
60494;SDS011;46342;49.046;11.920;2024-03-29T11:38:52;0.90;;;0.90;;
60494;SDS011;46342;49.046;11.920;2024-03-29T11:41:22;1.27;;;1.10;;
60494;SDS011;46342;49.046;11.920;2024-03-29T11:43:49;1.10;;;0.85;;
60494;SDS011;46342;49.046;11.920;2024-03-29T11:46:15;1.20;;;0.90;;
60494;SDS011;46342;49.046;11.920;2024-03-29T11:48:42;1.02;;;1.00;;
60494;SDS011;46342;49.046;11.920;2024-03-29T11:51:10;1.13;;;0.98;;
60494;SDS011;46342;49.046;11.920;2024-03-29T11:53:39;0.82;;;0.82;;
60494;SDS011;46342;49.046;11.920;2024-03-29T11:56:05;0.73;;;0.73;;
60494;SDS011;46342;49.046;11.920;2024-03-29T11:58:32;0.65;;;0.65;;
60494;SDS011;46342;49.046;11.920;2024-03-29T12:00:59;0.70;;;0.70;;
60494;SDS011;46342;49.046;11.920;2024-03-29T12:03:26;3.15;;;1.10;;
60494;SDS011;46342;49.046;11.920;2024-03-29T12:05:53;1.55;;;0.80;;
60494;SDS011;46342;49.046;11.920;2024-03-29T12:08:23;1.13;;;0.90;;
60494;SDS011;46342;49.046;11.920;2024-03-29T12:11:00;0.80;;;0.80;;
60494;SDS011;46342;49.046;11.920;2024-03-29T12:13:27;0.80;;;0.80;;
60494;SDS011;46342;49.046;11.920;2024-03-29T12:15:53;0.60;;;0.60;;
60494;SDS011;46342;49.046;11.920;2024-03-29T12:18:19;0.88;;;0.65;;
60494;SDS011;46342;49.046;11.920;2024-03-29T12:20:46;0.85;;;0.85;;
60494;SDS011;46342;49.046;11.920;2024-03-29T12:23:14;2.13;;;0.65;;
60494;SDS011;46342;49.046;11.920;2024-03-29T12:25:44;0.90;;;0.90;;
60494;SDS011;46342;49.046;11.920;2024-03-29T12:28:11;0.93;;;0.82;;
60494;SDS011;46342;49.046;11.920;2024-03-29T12:30:38;1.52;;;0.80;;
60494;SDS011;46342;49.046;11.920;2024-03-29T12:33:06;0.85;;;0.75;;
60494;SDS011;46342;49.046;11.920;2024-03-29T12:35:43;0.95;;;0.75;;
60494;SDS011;46342;49.046;11.920;2024-03-29T12:38:10;1.05;;;0.80;;
60494;SDS011;46342;49.046;11.920;2024-03-29T12:40:38;0.63;;;0.63;;
60494;SDS011;46342;49.046;11.920;2024-03-29T12:43:05;1.53;;;0.70;;
60494;SDS011;46342;49.046;11.920;2024-03-29T12:45:35;0.77;;;0.70;;
60494;SDS011;46342;49.046;11.920;2024-03-29T12:48:01;0.70;;;0.70;;
60494;SDS011;46342;49.046;11.920;2024-03-29T12:50:33;1.10;;;0.70;;
60494;SDS011;46342;49.046;11.920;2024-03-29T12:53:00;0.77;;;0.60;;
60494;SDS011;46342;49.046;11.920;2024-03-29T12:57:56;1.20;;;0.50;;
60494;SDS011;46342;49.046;11.920;2024-03-29T13:00:25;1.48;;;0.90;;
60494;SDS011;46342;49.046;11.920;2024-03-29T13:02:51;1.00;;;0.70;;
60494;SDS011;46342;49.046;11.920;2024-03-29T13:05:16;1.10;;;0.82;;
60494;SDS011;46342;49.046;11.920;2024-03-29T13:07:42;1.17;;;0.80;;
60494;SDS011;46342;49.046;11.920;2024-03-29T13:10:08;1.00;;;0.90;;
60494;SDS011;46342;49.046;11.920;2024-03-29T13:12:44;0.70;;;0.70;;
60494;SDS011;46342;49.046;11.920;2024-03-29T13:15:21;1.00;;;0.77;;
60494;SDS011;46342;49.046;11.920;2024-03-29T13:17:50;0.80;;;0.80;;
60494;SDS011;46342;49.046;11.920;2024-03-29T13:20:17;0.63;;;0.63;;
60494;SDS011;46342;49.046;11.920;2024-03-29T13:22:43;0.70;;;0.70;;
60494;SDS011;46342;49.046;11.920;2024-03-29T13:27:43;1.55;;;0.93;;
60494;SDS011;46342;49.046;11.920;2024-03-29T13:30:10;1.02;;;0.85;;
60494;SDS011;46342;49.046;11.920;2024-03-29T13:32:40;0.70;;;0.70;;
60494;SDS011;46342;49.046;11.920;2024-03-29T13:35:10;0.93;;;0.93;;
60494;SDS011;46342;49.046;11.920;2024-03-29T13:37:39;1.50;;;0.90;;
60494;SDS011;46342;49.046;11.920;2024-03-29T13:40:08;0.68;;;0.68;;
60494;SDS011;46342;49.046;11.920;2024-03-29T13:42:35;0.90;;;0.70;;
60494;SDS011;46342;49.046;11.920;2024-03-29T13:45:01;0.77;;;0.77;;
60494;SDS011;46342;49.046;11.920;2024-03-29T13:47:27;0.70;;;0.70;;
60494;SDS011;46342;49.046;11.920;2024-03-29T13:49:53;0.80;;;0.80;;
60494;SDS011;46342;49.046;11.920;2024-03-29T13:52:19;1.17;;;0.90;;
60494;SDS011;46342;49.046;11.920;2024-03-29T13:54:45;1.17;;;0.75;;
60494;SDS011;46342;49.046;11.920;2024-03-29T13:57:12;0.65;;;0.65;;
60494;SDS011;46342;49.046;11.920;2024-03-29T13:59:38;1.00;;;0.90;;
60494;SDS011;46342;49.046;11.920;2024-03-29T14:02:04;0.80;;;0.75;;
60494;SDS011;46342;49.046;11.920;2024-03-29T14:04:30;0.80;;;0.80;;
60494;SDS011;46342;49.046;11.920;2024-03-29T14:06:56;0.70;;;0.70;;
60494;SDS011;46342;49.046;11.920;2024-03-29T14:09:21;0.70;;;0.70;;
60494;SDS011;46342;49.046;11.920;2024-03-29T14:11:47;0.73;;;0.73;;
60494;SDS011;46342;49.046;11.920;2024-03-29T14:14:13;0.50;;;0.50;;
60494;SDS011;46342;49.046;11.920;2024-03-29T14:16:38;0.57;;;0.55;;
60494;SDS011;46342;49.046;11.920;2024-03-29T14:19:04;0.70;;;0.70;;
60494;SDS011;46342;49.046;11.920;2024-03-29T14:21:29;0.60;;;0.60;;
60494;SDS011;46342;49.046;11.920;2024-03-29T14:23:56;0.70;;;0.70;;
60494;SDS011;46342;49.046;11.920;2024-03-29T14:26:22;0.65;;;0.60;;
60494;SDS011;46342;49.046;11.920;2024-03-29T14:28:48;0.60;;;0.60;;
60494;SDS011;46342;49.046;11.920;2024-03-29T14:31:13;0.50;;;0.50;;
60494;SDS011;46342;49.046;11.920;2024-03-29T14:33:39;1.20;;;0.80;;
60494;SDS011;46342;49.046;11.920;2024-03-29T14:36:05;0.80;;;0.80;;
60494;SDS011;46342;49.046;11.920;2024-03-29T14:38:30;0.70;;;0.70;;
60494;SDS011;46342;49.046;11.920;2024-03-29T14:40:56;0.98;;;0.90;;
60494;SDS011;46342;49.046;11.920;2024-03-29T14:43:21;1.23;;;0.80;;
60494;SDS011;46342;49.046;11.920;2024-03-29T14:45:49;0.60;;;0.60;;
60494;SDS011;46342;49.046;11.920;2024-03-29T14:48:15;0.80;;;0.77;;
60494;SDS011;46342;49.046;11.920;2024-03-29T14:50:41;0.60;;;0.60;;
60494;SDS011;46342;49.046;11.920;2024-03-29T14:53:07;0.60;;;0.60;;